sensor_id;sensor_type;location;lat;lon;timestamp;temperature;humidity
9730;DHT22;4904;49.152;11.004;2022-08-30T00:01:03;17.30;99.90
9730;DHT22;4904;49.152;11.004;2022-08-30T00:03:30;17.30;99.90
9730;DHT22;4904;49.152;11.004;2022-08-30T00:05:58;17.10;99.90
9730;DHT22;4904;49.152;11.004;2022-08-30T00:08:27;16.90;99.90
9730;DHT22;4904;49.152;11.004;2022-08-30T00:10:54;16.90;99.90
9730;DHT22;4904;49.152;11.004;2022-08-30T00:13:22;16.80;99.90
9730;DHT22;4904;49.152;11.004;2022-08-30T00:15:49;16.80;99.90
9730;DHT22;4904;49.152;11.004;2022-08-30T00:18:17;16.90;99.90
9730;DHT22;4904;49.152;11.004;2022-08-30T00:20:46;16.90;99.90
9730;DHT22;4904;49.152;11.004;2022-08-30T00:23:14;16.80;99.90
9730;DHT22;4904;49.152;11.004;2022-08-30T00:25:43;16.60;99.90
9730;DHT22;4904;49.152;11.004;2022-08-30T00:28:10;16.70;99.90
9730;DHT22;4904;49.152;11.004;2022-08-30T00:30:38;16.60;99.90
9730;DHT22;4904;49.152;11.004;2022-08-30T00:33:05;16.70;99.90
9730;DHT22;4904;49.152;11.004;2022-08-30T00:35:35;16.80;99.90
9730;DHT22;4904;49.152;11.004;2022-08-30T00:38:03;16.80;99.90
9730;DHT22;4904;49.152;11.004;2022-08-30T00:40:30;16.70;99.90
9730;DHT22;4904;49.152;11.004;2022-08-30T00:42:59;16.70;99.90
9730;DHT22;4904;49.152;11.004;2022-08-30T00:45:28;16.70;99.90
9730;DHT22;4904;49.152;11.004;2022-08-30T00:47:56;16.80;99.90
9730;DHT22;4904;49.152;11.004;2022-08-30T00:50:28;16.80;99.90
9730;DHT22;4904;49.152;11.004;2022-08-30T00:52:57;16.70;99.90
9730;DHT22;4904;49.152;11.004;2022-08-30T00:55:26;16.70;99.90
9730;DHT22;4904;49.152;11.004;2022-08-30T00:57:57;16.70;99.90
9730;DHT22;4904;49.152;11.004;2022-08-30T01:00:26;16.70;99.90
9730;DHT22;4904;49.152;11.004;2022-08-30T01:02:53;16.50;99.90
9730;DHT22;4904;49.152;11.004;2022-08-30T01:05:20;16.30;99.90
9730;DHT22;4904;49.152;11.004;2022-08-30T01:07:48;16.40;99.90
9730;DHT22;4904;49.152;11.004;2022-08-30T01:10:16;16.40;99.90
9730;DHT22;4904;49.152;11.004;2022-08-30T01:12:44;16.40;99.90
9730;DHT22;4904;49.152;11.004;2022-08-30T01:15:12;16.40;99.90
9730;DHT22;4904;49.152;11.004;2022-08-30T01:17:43;16.20;99.90
9730;DHT22;4904;49.152;11.004;2022-08-30T01:20:11;16.20;99.90
9730;DHT22;4904;49.152;11.004;2022-08-30T01:22:42;16.10;99.90
9730;DHT22;4904;49.152;11.004;2022-08-30T01:25:12;16.00;99.90
9730;DHT22;4904;49.152;11.004;2022-08-30T01:27:42;15.90;99.90
9730;DHT22;4904;49.152;11.004;2022-08-30T01:30:11;15.90;99.90
9730;DHT22;4904;49.152;11.004;2022-08-30T01:32:40;16.00;99.90
9730;DHT22;4904;49.152;11.004;2022-08-30T01:35:09;16.10;99.90
9730;DHT22;4904;49.152;11.004;2022-08-30T01:37:37;16.20;99.90
9730;DHT22;4904;49.152;11.004;2022-08-30T01:40:06;16.20;99.90
9730;DHT22;4904;49.152;11.004;2022-08-30T01:42:34;16.20;99.90
9730;DHT22;4904;49.152;11.004;2022-08-30T01:45:01;16.30;99.90
9730;DHT22;4904;49.152;11.004;2022-08-30T01:47:28;16.20;99.90
9730;DHT22;4904;49.152;11.004;2022-08-30T01:49:55;16.00;99.90
9730;DHT22;4904;49.152;11.004;2022-08-30T01:52:23;16.20;99.90
9730;DHT22;4904;49.152;11.004;2022-08-30T01:54:50;16.20;99.90
9730;DHT22;4904;49.152;11.004;2022-08-30T01:57:19;16.20;99.90
9730;DHT22;4904;49.152;11.004;2022-08-30T01:59:48;16.20;99.90
9730;DHT22;4904;49.152;11.004;2022-08-30T02:02:17;16.20;99.90
9730;DHT22;4904;49.152;11.004;2022-08-30T02:04:45;16.10;99.90
9730;DHT22;4904;49.152;11.004;2022-08-30T02:07:12;16.20;99.90
9730;DHT22;4904;49.152;11.004;2022-08-30T02:09:39;16.10;99.90
9730;DHT22;4904;49.152;11.004;2022-08-30T02:12:07;16.20;99.90
9730;DHT22;4904;49.152;11.004;2022-08-30T02:14:34;16.10;99.90
9730;DHT22;4904;49.152;11.004;2022-08-30T02:17:04;16.10;99.90
9730;DHT22;4904;49.152;11.004;2022-08-30T02:19:31;16.00;99.90
9730;DHT22;4904;49.152;11.004;2022-08-30T02:21:58;15.90;99.90
9730;DHT22;4904;49.152;11.004;2022-08-30T02:24:25;15.90;99.90
9730;DHT22;4904;49.152;11.004;2022-08-30T02:26:52;15.70;99.90
9730;DHT22;4904;49.152;11.004;2022-08-30T02:29:20;15.70;99.90
9730;DHT22;4904;49.152;11.004;2022-08-30T02:31:48;15.60;99.90
9730;DHT22;4904;49.152;11.004;2022-08-30T02:34:17;15.50;99.90
9730;DHT22;4904;49.152;11.004;2022-08-30T02:36:44;15.50;99.90
9730;DHT22;4904;49.152;11.004;2022-08-30T02:39:12;15.60;99.90
9730;DHT22;4904;49.152;11.004;2022-08-30T02:41:40;15.70;99.90
9730;DHT22;4904;49.152;11.004;2022-08-30T02:44:08;15.70;99.90
9730;DHT22;4904;49.152;11.004;2022-08-30T02:46:35;15.80;99.90
9730;DHT22;4904;49.152;11.004;2022-08-30T02:49:03;15.80;99.90
9730;DHT22;4904;49.152;11.004;2022-08-30T02:51:31;15.80;99.90
9730;DHT22;4904;49.152;11.004;2022-08-30T02:53:58;15.70;99.90
9730;DHT22;4904;49.152;11.004;2022-08-30T02:56:25;15.70;99.90
9730;DHT22;4904;49.152;11.004;2022-08-30T02:58:53;15.80;99.90
9730;DHT22;4904;49.152;11.004;2022-08-30T03:01:20;15.80;99.90
9730;DHT22;4904;49.152;11.004;2022-08-30T03:03:47;15.80;99.90
9730;DHT22;4904;49.152;11.004;2022-08-30T03:06:15;15.80;99.90
9730;DHT22;4904;49.152;11.004;2022-08-30T03:08:43;15.60;99.90
9730;DHT22;4904;49.152;11.004;2022-08-30T03:11:10;15.30;99.90
9730;DHT22;4904;49.152;11.004;2022-08-30T03:13:38;15.20;99.90
9730;DHT22;4904;49.152;11.004;2022-08-30T03:16:05;15.20;99.90
9730;DHT22;4904;49.152;11.004;2022-08-30T03:18:32;15.20;99.90
9730;DHT22;4904;49.152;11.004;2022-08-30T03:20:59;15.30;99.90
9730;DHT22;4904;49.152;11.004;2022-08-30T03:23:26;15.40;99.90
9730;DHT22;4904;49.152;11.004;2022-08-30T03:25:54;15.40;99.90
9730;DHT22;4904;49.152;11.004;2022-08-30T03:28:21;15.50;99.90
9730;DHT22;4904;49.152;11.004;2022-08-30T03:30:49;15.50;99.90
9730;DHT22;4904;49.152;11.004;2022-08-30T03:33:16;15.60;99.90
9730;DHT22;4904;49.152;11.004;2022-08-30T03:35:43;15.60;99.90
9730;DHT22;4904;49.152;11.004;2022-08-30T03:38:10;15.70;99.90
9730;DHT22;4904;49.152;11.004;2022-08-30T03:40:37;15.70;99.90
9730;DHT22;4904;49.152;11.004;2022-08-30T03:43:05;15.70;99.90
9730;DHT22;4904;49.152;11.004;2022-08-30T03:45:33;15.70;99.90
9730;DHT22;4904;49.152;11.004;2022-08-30T03:48:00;15.70;99.90
9730;DHT22;4904;49.152;11.004;2022-08-30T03:50:28;15.70;99.90
9730;DHT22;4904;49.152;11.004;2022-08-30T03:52:55;15.40;99.90
9730;DHT22;4904;49.152;11.004;2022-08-30T03:55:23;15.30;99.90
9730;DHT22;4904;49.152;11.004;2022-08-30T03:57:49;15.30;99.90
9730;DHT22;4904;49.152;11.004;2022-08-30T04:00:18;15.30;99.90
9730;DHT22;4904;49.152;11.004;2022-08-30T04:02:45;15.30;99.90
9730;DHT22;4904;49.152;11.004;2022-08-30T04:05:12;15.40;99.90
9730;DHT22;4904;49.152;11.004;2022-08-30T04:07:39;15.50;99.90
9730;DHT22;4904;49.152;11.004;2022-08-30T04:10:07;15.60;99.90
9730;DHT22;4904;49.152;11.004;2022-08-30T04:12:35;15.50;99.90
9730;DHT22;4904;49.152;11.004;2022-08-30T04:15:02;15.50;99.90
9730;DHT22;4904;49.152;11.004;2022-08-30T04:17:31;15.50;99.90
9730;DHT22;4904;49.152;11.004;2022-08-30T04:19:58;15.40;99.90
9730;DHT22;4904;49.152;11.004;2022-08-30T04:22:25;15.40;99.90
9730;DHT22;4904;49.152;11.004;2022-08-30T04:24:52;15.40;99.90
9730;DHT22;4904;49.152;11.004;2022-08-30T04:27:18;15.50;99.90
9730;DHT22;4904;49.152;11.004;2022-08-30T04:29:46;15.50;99.90
9730;DHT22;4904;49.152;11.004;2022-08-30T04:32:13;15.60;99.90
9730;DHT22;4904;49.152;11.004;2022-08-30T04:34:42;15.50;99.90
9730;DHT22;4904;49.152;11.004;2022-08-30T04:37:09;15.50;99.90
9730;DHT22;4904;49.152;11.004;2022-08-30T04:39:36;15.60;99.90
9730;DHT22;4904;49.152;11.004;2022-08-30T04:42:03;15.60;99.90
9730;DHT22;4904;49.152;11.004;2022-08-30T04:44:30;15.60;99.90
9730;DHT22;4904;49.152;11.004;2022-08-30T04:46:57;15.60;99.90
9730;DHT22;4904;49.152;11.004;2022-08-30T04:49:24;15.60;99.90
9730;DHT22;4904;49.152;11.004;2022-08-30T04:51:53;15.60;99.90
9730;DHT22;4904;49.152;11.004;2022-08-30T04:54:20;15.60;99.90
9730;DHT22;4904;49.152;11.004;2022-08-30T04:56:47;15.60;99.90
9730;DHT22;4904;49.152;11.004;2022-08-30T04:59:14;15.70;99.90
9730;DHT22;4904;49.152;11.004;2022-08-30T05:01:41;15.70;99.90
9730;DHT22;4904;49.152;11.004;2022-08-30T05:04:08;15.50;99.90
9730;DHT22;4904;49.152;11.004;2022-08-30T05:06:35;15.30;99.90
9730;DHT22;4904;49.152;11.004;2022-08-30T05:09:03;15.20;99.90
9730;DHT22;4904;49.152;11.004;2022-08-30T05:11:30;15.30;99.90
9730;DHT22;4904;49.152;11.004;2022-08-30T05:13:57;15.30;99.90
9730;DHT22;4904;49.152;11.004;2022-08-30T05:16:24;15.40;99.90
9730;DHT22;4904;49.152;11.004;2022-08-30T05:18:51;15.50;99.90
9730;DHT22;4904;49.152;11.004;2022-08-30T05:21:20;15.40;99.90
9730;DHT22;4904;49.152;11.004;2022-08-30T05:23:48;15.40;99.90
9730;DHT22;4904;49.152;11.004;2022-08-30T05:26:19;15.40;99.90
9730;DHT22;4904;49.152;11.004;2022-08-30T05:28:47;15.50;99.90
9730;DHT22;4904;49.152;11.004;2022-08-30T05:31:16;15.60;99.90
9730;DHT22;4904;49.152;11.004;2022-08-30T05:33:44;15.60;99.90
9730;DHT22;4904;49.152;11.004;2022-08-30T05:36:12;15.70;99.90
9730;DHT22;4904;49.152;11.004;2022-08-30T05:38:39;15.80;99.90
9730;DHT22;4904;49.152;11.004;2022-08-30T05:41:07;15.90;99.90
9730;DHT22;4904;49.152;11.004;2022-08-30T05:43:35;16.00;99.90
9730;DHT22;4904;49.152;11.004;2022-08-30T05:46:04;16.40;99.90
9730;DHT22;4904;49.152;11.004;2022-08-30T05:48:32;16.80;99.90
9730;DHT22;4904;49.152;11.004;2022-08-30T05:51:04;17.10;99.90
9730;DHT22;4904;49.152;11.004;2022-08-30T05:53:31;17.50;99.90
9730;DHT22;4904;49.152;11.004;2022-08-30T05:56:00;17.60;99.90
9730;DHT22;4904;49.152;11.004;2022-08-30T05:58:27;17.90;99.90
9730;DHT22;4904;49.152;11.004;2022-08-30T06:00:55;18.00;99.90
9730;DHT22;4904;49.152;11.004;2022-08-30T06:03:22;18.00;99.90
9730;DHT22;4904;49.152;11.004;2022-08-30T06:05:49;17.50;99.90
9730;DHT22;4904;49.152;11.004;2022-08-30T06:08:16;17.40;99.90
9730;DHT22;4904;49.152;11.004;2022-08-30T06:10:44;17.30;99.90
9730;DHT22;4904;49.152;11.004;2022-08-30T06:13:12;17.30;99.90
9730;DHT22;4904;49.152;11.004;2022-08-30T06:15:39;17.30;99.90
9730;DHT22;4904;49.152;11.004;2022-08-30T06:18:10;17.30;99.90
9730;DHT22;4904;49.152;11.004;2022-08-30T06:20:39;17.30;99.90
9730;DHT22;4904;49.152;11.004;2022-08-30T06:23:07;17.40;99.90
9730;DHT22;4904;49.152;11.004;2022-08-30T06:25:35;17.50;99.90
9730;DHT22;4904;49.152;11.004;2022-08-30T06:28:02;17.50;99.90
9730;DHT22;4904;49.152;11.004;2022-08-30T06:30:29;17.50;99.90
9730;DHT22;4904;49.152;11.004;2022-08-30T06:32:56;17.60;99.90
9730;DHT22;4904;49.152;11.004;2022-08-30T06:35:26;17.70;99.90
9730;DHT22;4904;49.152;11.004;2022-08-30T06:37:53;17.60;99.90
9730;DHT22;4904;49.152;11.004;2022-08-30T06:40:20;17.70;99.90
9730;DHT22;4904;49.152;11.004;2022-08-30T06:42:47;17.80;99.90
9730;DHT22;4904;49.152;11.004;2022-08-30T06:45:15;17.90;99.90
9730;DHT22;4904;49.152;11.004;2022-08-30T06:47:42;18.00;99.90
9730;DHT22;4904;49.152;11.004;2022-08-30T06:50:10;18.00;99.90
9730;DHT22;4904;49.152;11.004;2022-08-30T06:52:40;18.10;99.90
9730;DHT22;4904;49.152;11.004;2022-08-30T06:55:08;18.10;99.90
9730;DHT22;4904;49.152;11.004;2022-08-30T06:57:37;18.20;99.90
9730;DHT22;4904;49.152;11.004;2022-08-30T07:00:05;18.30;99.90
9730;DHT22;4904;49.152;11.004;2022-08-30T07:02:32;18.30;99.90
9730;DHT22;4904;49.152;11.004;2022-08-30T07:04:59;18.40;99.90
9730;DHT22;4904;49.152;11.004;2022-08-30T07:07:27;18.40;99.90
9730;DHT22;4904;49.152;11.004;2022-08-30T07:09:56;18.50;99.90
9730;DHT22;4904;49.152;11.004;2022-08-30T07:12:23;18.50;99.90
9730;DHT22;4904;49.152;11.004;2022-08-30T07:14:49;18.60;99.90
9730;DHT22;4904;49.152;11.004;2022-08-30T07:17:16;18.60;99.90
9730;DHT22;4904;49.152;11.004;2022-08-30T07:20:02;18.60;99.90
9730;DHT22;4904;49.152;11.004;2022-08-30T07:22:29;18.80;99.90
9730;DHT22;4904;49.152;11.004;2022-08-30T07:24:59;18.90;99.90
9730;DHT22;4904;49.152;11.004;2022-08-30T07:27:26;18.90;99.90
9730;DHT22;4904;49.152;11.004;2022-08-30T07:29:53;19.00;99.90
9730;DHT22;4904;49.152;11.004;2022-08-30T07:32:20;19.10;99.90
9730;DHT22;4904;49.152;11.004;2022-08-30T07:34:47;19.20;99.90
9730;DHT22;4904;49.152;11.004;2022-08-30T07:37:14;19.00;99.90
9730;DHT22;4904;49.152;11.004;2022-08-30T07:39:41;19.00;99.90
9730;DHT22;4904;49.152;11.004;2022-08-30T07:42:12;19.20;99.90
9730;DHT22;4904;49.152;11.004;2022-08-30T07:44:39;19.40;99.90
9730;DHT22;4904;49.152;11.004;2022-08-30T07:47:06;19.40;99.90
9730;DHT22;4904;49.152;11.004;2022-08-30T07:49:33;19.60;99.90
9730;DHT22;4904;49.152;11.004;2022-08-30T07:52:00;19.70;99.90
9730;DHT22;4904;49.152;11.004;2022-08-30T07:54:27;19.80;99.90
9730;DHT22;4904;49.152;11.004;2022-08-30T07:56:54;19.80;99.90
9730;DHT22;4904;49.152;11.004;2022-08-30T07:59:22;19.80;99.90
9730;DHT22;4904;49.152;11.004;2022-08-30T08:01:49;19.90;99.90
9730;DHT22;4904;49.152;11.004;2022-08-30T08:04:16;20.00;99.90
9730;DHT22;4904;49.152;11.004;2022-08-30T08:06:44;20.20;99.90
9730;DHT22;4904;49.152;11.004;2022-08-30T08:09:11;20.40;99.90
9730;DHT22;4904;49.152;11.004;2022-08-30T08:11:38;20.50;99.90
9730;DHT22;4904;49.152;11.004;2022-08-30T08:14:06;20.80;99.90
9730;DHT22;4904;49.152;11.004;2022-08-30T08:16:35;20.90;99.90
9730;DHT22;4904;49.152;11.004;2022-08-30T08:19:03;21.10;99.90
9730;DHT22;4904;49.152;11.004;2022-08-30T08:21:34;21.30;99.90
9730;DHT22;4904;49.152;11.004;2022-08-30T08:24:02;21.50;99.90
9730;DHT22;4904;49.152;11.004;2022-08-30T08:26:29;21.70;99.90
9730;DHT22;4904;49.152;11.004;2022-08-30T08:28:56;21.80;99.90
9730;DHT22;4904;49.152;11.004;2022-08-30T08:31:26;22.00;99.90
9730;DHT22;4904;49.152;11.004;2022-08-30T08:33:55;22.20;99.90
9730;DHT22;4904;49.152;11.004;2022-08-30T08:36:23;22.30;99.90
9730;DHT22;4904;49.152;11.004;2022-08-30T08:38:50;22.50;99.90
9730;DHT22;4904;49.152;11.004;2022-08-30T08:41:30;22.70;99.90
9730;DHT22;4904;49.152;11.004;2022-08-30T08:44:03;22.90;99.90
9730;DHT22;4904;49.152;11.004;2022-08-30T08:46:42;22.90;99.90
9730;DHT22;4904;49.152;11.004;2022-08-30T08:49:11;23.00;99.90
9730;DHT22;4904;49.152;11.004;2022-08-30T08:51:39;23.20;99.90
9730;DHT22;4904;49.152;11.004;2022-08-30T08:54:29;23.30;99.90
9730;DHT22;4904;49.152;11.004;2022-08-30T08:56:58;23.50;99.90
9730;DHT22;4904;49.152;11.004;2022-08-30T08:59:26;23.70;99.90
9730;DHT22;4904;49.152;11.004;2022-08-30T09:01:58;23.90;99.90
9730;DHT22;4904;49.152;11.004;2022-08-30T09:04:31;24.00;99.90
9730;DHT22;4904;49.152;11.004;2022-08-30T09:07:01;24.10;99.90
9730;DHT22;4904;49.152;11.004;2022-08-30T09:09:31;24.20;99.90
9730;DHT22;4904;49.152;11.004;2022-08-30T09:11:58;24.20;99.90
9730;DHT22;4904;49.152;11.004;2022-08-30T09:14:28;24.30;99.90
9730;DHT22;4904;49.152;11.004;2022-08-30T09:16:58;24.50;99.90
9730;DHT22;4904;49.152;11.004;2022-08-30T09:19:36;24.60;99.90
9730;DHT22;4904;49.152;11.004;2022-08-30T09:22:13;24.60;99.90
9730;DHT22;4904;49.152;11.004;2022-08-30T09:24:43;24.70;99.90
9730;DHT22;4904;49.152;11.004;2022-08-30T09:27:19;24.90;99.90
9730;DHT22;4904;49.152;11.004;2022-08-30T09:30:09;25.00;99.90
9730;DHT22;4904;49.152;11.004;2022-08-30T09:32:38;25.00;99.90
9730;DHT22;4904;49.152;11.004;2022-08-30T09:35:10;25.10;99.90
9730;DHT22;4904;49.152;11.004;2022-08-30T09:37:43;25.30;99.90
9730;DHT22;4904;49.152;11.004;2022-08-30T09:40:14;25.40;99.90
9730;DHT22;4904;49.152;11.004;2022-08-30T09:42:59;25.10;99.90
9730;DHT22;4904;49.152;11.004;2022-08-30T09:45:30;25.00;99.90
9730;DHT22;4904;49.152;11.004;2022-08-30T09:47:58;25.10;99.90
9730;DHT22;4904;49.152;11.004;2022-08-30T09:50:30;25.40;99.90
9730;DHT22;4904;49.152;11.004;2022-08-30T09:53:04;25.70;99.90
9730;DHT22;4904;49.152;11.004;2022-08-30T09:55:52;25.70;99.90
9730;DHT22;4904;49.152;11.004;2022-08-30T09:58:29;25.70;99.90
9730;DHT22;4904;49.152;11.004;2022-08-30T10:01:06;25.70;99.90
9730;DHT22;4904;49.152;11.004;2022-08-30T10:03:40;25.70;99.90
9730;DHT22;4904;49.152;11.004;2022-08-30T10:06:17;25.60;99.90
9730;DHT22;4904;49.152;11.004;2022-08-30T10:08:57;25.70;99.90
9730;DHT22;4904;49.152;11.004;2022-08-30T10:11:33;25.90;99.90
9730;DHT22;4904;49.152;11.004;2022-08-30T10:17:04;26.00;99.90
9730;DHT22;4904;49.152;11.004;2022-08-30T10:19:45;26.10;99.90
9730;DHT22;4904;49.152;11.004;2022-08-30T10:22:20;26.00;99.90
9730;DHT22;4904;49.152;11.004;2022-08-30T10:24:52;26.10;99.90
9730;DHT22;4904;49.152;11.004;2022-08-30T10:27:24;26.10;99.90
9730;DHT22;4904;49.152;11.004;2022-08-30T10:29:55;26.30;99.90
9730;DHT22;4904;49.152;11.004;2022-08-30T10:32:27;26.40;99.90
9730;DHT22;4904;49.152;11.004;2022-08-30T10:35:02;26.50;99.90
9730;DHT22;4904;49.152;11.004;2022-08-30T10:37:34;26.40;99.90
9730;DHT22;4904;49.152;11.004;2022-08-30T10:40:07;26.50;99.90
9730;DHT22;4904;49.152;11.004;2022-08-30T10:42:50;26.60;99.90
9730;DHT22;4904;49.152;11.004;2022-08-30T10:45:20;26.80;99.90
9730;DHT22;4904;49.152;11.004;2022-08-30T10:47:52;27.00;99.90
9730;DHT22;4904;49.152;11.004;2022-08-30T10:50:24;27.10;99.90
9730;DHT22;4904;49.152;11.004;2022-08-30T10:52:58;27.10;99.90
9730;DHT22;4904;49.152;11.004;2022-08-30T10:55:28;27.00;99.90
9730;DHT22;4904;49.152;11.004;2022-08-30T10:57:58;27.20;99.90
9730;DHT22;4904;49.152;11.004;2022-08-30T11:00:28;27.40;99.90
9730;DHT22;4904;49.152;11.004;2022-08-30T11:06:10;27.60;99.90
9730;DHT22;4904;49.152;11.004;2022-08-30T11:08:54;27.70;99.90
9730;DHT22;4904;49.152;11.004;2022-08-30T11:11:31;27.60;99.90
9730;DHT22;4904;49.152;11.004;2022-08-30T11:14:03;27.60;99.90
9730;DHT22;4904;49.152;11.004;2022-08-30T11:16:36;27.70;99.90
9730;DHT22;4904;49.152;11.004;2022-08-30T11:19:14;27.30;99.90
9730;DHT22;4904;49.152;11.004;2022-08-30T11:21:42;27.30;99.90
9730;DHT22;4904;49.152;11.004;2022-08-30T11:24:12;27.50;99.90
9730;DHT22;4904;49.152;11.004;2022-08-30T11:26:56;27.60;99.90
9730;DHT22;4904;49.152;11.004;2022-08-30T11:29:33;27.60;99.90
9730;DHT22;4904;49.152;11.004;2022-08-30T11:32:19;27.40;99.90
9730;DHT22;4904;49.152;11.004;2022-08-30T11:34:56;27.50;99.90
9730;DHT22;4904;49.152;11.004;2022-08-30T11:37:33;27.80;99.90
9730;DHT22;4904;49.152;11.004;2022-08-30T11:40:08;27.90;99.90
9730;DHT22;4904;49.152;11.004;2022-08-30T11:42:43;28.00;99.90
9730;DHT22;4904;49.152;11.004;2022-08-30T11:45:45;28.00;99.90
9730;DHT22;4904;49.152;11.004;2022-08-30T11:48:50;28.10;99.90
9730;DHT22;4904;49.152;11.004;2022-08-30T11:51:40;27.90;99.90
9730;DHT22;4904;49.152;11.004;2022-08-30T11:54:18;28.00;99.90
9730;DHT22;4904;49.152;11.004;2022-08-30T11:56:56;28.10;99.90
9730;DHT22;4904;49.152;11.004;2022-08-30T11:59:33;28.00;99.90
9730;DHT22;4904;49.152;11.004;2022-08-30T12:02:04;28.10;99.90
9730;DHT22;4904;49.152;11.004;2022-08-30T12:04:42;28.10;99.90
9730;DHT22;4904;49.152;11.004;2022-08-30T12:07:10;28.20;99.90
9730;DHT22;4904;49.152;11.004;2022-08-30T12:10:01;28.30;99.90
9730;DHT22;4904;49.152;11.004;2022-08-30T12:12:53;28.40;99.90
9730;DHT22;4904;49.152;11.004;2022-08-30T12:15:51;28.30;99.90
9730;DHT22;4904;49.152;11.004;2022-08-30T12:21:13;28.40;99.90
9730;DHT22;4904;49.152;11.004;2022-08-30T12:23:49;28.40;99.90
9730;DHT22;4904;49.152;11.004;2022-08-30T12:26:28;28.50;99.90
9730;DHT22;4904;49.152;11.004;2022-08-30T12:29:23;28.60;99.90
9730;DHT22;4904;49.152;11.004;2022-08-30T12:31:52;28.60;99.90
9730;DHT22;4904;49.152;11.004;2022-08-30T12:34:23;28.70;99.90
9730;DHT22;4904;49.152;11.004;2022-08-30T12:36:58;28.90;99.90
9730;DHT22;4904;49.152;11.004;2022-08-30T12:39:29;28.80;99.90
9730;DHT22;4904;49.152;11.004;2022-08-30T12:42:10;28.50;99.90
9730;DHT22;4904;49.152;11.004;2022-08-30T12:44:40;28.60;99.90
9730;DHT22;4904;49.152;11.004;2022-08-30T12:47:07;28.70;99.90
9730;DHT22;4904;49.152;11.004;2022-08-30T12:49:39;28.70;99.90
9730;DHT22;4904;49.152;11.004;2022-08-30T12:52:18;28.70;99.90
9730;DHT22;4904;49.152;11.004;2022-08-30T12:54:47;28.50;99.90
9730;DHT22;4904;49.152;11.004;2022-08-30T12:57:34;28.50;99.90
9730;DHT22;4904;49.152;11.004;2022-08-30T13:00:04;28.50;99.90
9730;DHT22;4904;49.152;11.004;2022-08-30T13:02:45;28.50;99.90
9730;DHT22;4904;49.152;11.004;2022-08-30T13:05:31;28.60;99.90
9730;DHT22;4904;49.152;11.004;2022-08-30T13:08:09;28.60;99.90
9730;DHT22;4904;49.152;11.004;2022-08-30T13:10:48;28.70;99.90
9730;DHT22;4904;49.152;11.004;2022-08-30T13:13:27;28.50;99.90
9730;DHT22;4904;49.152;11.004;2022-08-30T13:15:56;28.60;99.90
9730;DHT22;4904;49.152;11.004;2022-08-30T13:18:31;28.80;99.90
9730;DHT22;4904;49.152;11.004;2022-08-30T13:21:24;28.90;99.90
9730;DHT22;4904;49.152;11.004;2022-08-30T13:23:55;29.00;99.90
9730;DHT22;4904;49.152;11.004;2022-08-30T13:26:22;29.20;99.90
9730;DHT22;4904;49.152;11.004;2022-08-30T13:28:51;29.30;99.90
9730;DHT22;4904;49.152;11.004;2022-08-30T13:31:19;29.20;99.90
9730;DHT22;4904;49.152;11.004;2022-08-30T13:33:46;29.10;99.90
9730;DHT22;4904;49.152;11.004;2022-08-30T13:36:18;29.20;99.90
9730;DHT22;4904;49.152;11.004;2022-08-30T13:38:46;29.30;99.90
9730;DHT22;4904;49.152;11.004;2022-08-30T13:41:14;29.20;99.90
9730;DHT22;4904;49.152;11.004;2022-08-30T13:43:41;29.10;99.90
9730;DHT22;4904;49.152;11.004;2022-08-30T13:46:08;29.20;99.90
9730;DHT22;4904;49.152;11.004;2022-08-30T13:48:38;29.10;99.90
9730;DHT22;4904;49.152;11.004;2022-08-30T13:51:06;29.10;99.90
9730;DHT22;4904;49.152;11.004;2022-08-30T13:53:34;29.00;99.90
9730;DHT22;4904;49.152;11.004;2022-08-30T13:56:02;29.00;99.90
9730;DHT22;4904;49.152;11.004;2022-08-30T13:58:29;28.90;99.90
9730;DHT22;4904;49.152;11.004;2022-08-30T14:00:57;28.90;99.90
9730;DHT22;4904;49.152;11.004;2022-08-30T14:03:24;28.80;99.90
9730;DHT22;4904;49.152;11.004;2022-08-30T14:05:53;28.90;99.90
9730;DHT22;4904;49.152;11.004;2022-08-30T14:08:23;28.90;99.90
9730;DHT22;4904;49.152;11.004;2022-08-30T14:10:52;28.90;99.90
9730;DHT22;4904;49.152;11.004;2022-08-30T14:13:19;28.80;99.90
9730;DHT22;4904;49.152;11.004;2022-08-30T14:15:46;28.70;99.90
9730;DHT22;4904;49.152;11.004;2022-08-30T14:18:13;28.40;99.90
9730;DHT22;4904;49.152;11.004;2022-08-30T14:20:40;28.40;99.90
9730;DHT22;4904;49.152;11.004;2022-08-30T14:23:09;28.40;99.90
9730;DHT22;4904;49.152;11.004;2022-08-30T14:25:36;28.40;99.90
9730;DHT22;4904;49.152;11.004;2022-08-30T14:28:03;28.40;99.90
9730;DHT22;4904;49.152;11.004;2022-08-30T14:30:30;28.30;99.90
9730;DHT22;4904;49.152;11.004;2022-08-30T14:32:57;28.10;99.90
9730;DHT22;4904;49.152;11.004;2022-08-30T14:35:24;28.00;99.90
9730;DHT22;4904;49.152;11.004;2022-08-30T14:37:51;28.00;99.90
9730;DHT22;4904;49.152;11.004;2022-08-30T14:40:19;28.00;99.90
9730;DHT22;4904;49.152;11.004;2022-08-30T14:42:46;28.00;99.90
9730;DHT22;4904;49.152;11.004;2022-08-30T14:45:14;28.00;99.90
9730;DHT22;4904;49.152;11.004;2022-08-30T14:47:40;28.00;99.90
9730;DHT22;4904;49.152;11.004;2022-08-30T14:50:08;27.90;99.90
9730;DHT22;4904;49.152;11.004;2022-08-30T14:52:35;27.80;99.90
9730;DHT22;4904;49.152;11.004;2022-08-30T14:55:05;27.80;99.90
9730;DHT22;4904;49.152;11.004;2022-08-30T14:57:33;27.80;99.90
9730;DHT22;4904;49.152;11.004;2022-08-30T15:00:01;27.90;99.90
9730;DHT22;4904;49.152;11.004;2022-08-30T15:02:28;28.00;99.90
9730;DHT22;4904;49.152;11.004;2022-08-30T15:04:55;28.10;99.90
9730;DHT22;4904;49.152;11.004;2022-08-30T15:07:22;28.10;99.90
9730;DHT22;4904;49.152;11.004;2022-08-30T15:09:49;28.30;99.90
9730;DHT22;4904;49.152;11.004;2022-08-30T15:12:16;28.30;99.90
9730;DHT22;4904;49.152;11.004;2022-08-30T15:14:44;28.30;99.90
9730;DHT22;4904;49.152;11.004;2022-08-30T15:17:11;28.30;99.90
9730;DHT22;4904;49.152;11.004;2022-08-30T15:19:38;28.40;99.90
9730;DHT22;4904;49.152;11.004;2022-08-30T15:22:06;28.20;99.90
9730;DHT22;4904;49.152;11.004;2022-08-30T15:24:33;27.90;99.90
9730;DHT22;4904;49.152;11.004;2022-08-30T15:27:01;27.80;99.90
9730;DHT22;4904;49.152;11.004;2022-08-30T15:29:29;27.80;99.90
9730;DHT22;4904;49.152;11.004;2022-08-30T15:32:00;27.70;99.90
9730;DHT22;4904;49.152;11.004;2022-08-30T15:34:29;27.60;99.90
9730;DHT22;4904;49.152;11.004;2022-08-30T15:36:56;27.60;99.90
9730;DHT22;4904;49.152;11.004;2022-08-30T15:39:23;27.60;99.90
9730;DHT22;4904;49.152;11.004;2022-08-30T15:41:51;27.70;99.90
9730;DHT22;4904;49.152;11.004;2022-08-30T15:44:18;27.70;99.90
9730;DHT22;4904;49.152;11.004;2022-08-30T15:46:45;27.60;99.90
9730;DHT22;4904;49.152;11.004;2022-08-30T15:49:14;27.60;99.90
9730;DHT22;4904;49.152;11.004;2022-08-30T15:51:43;27.50;99.90
9730;DHT22;4904;49.152;11.004;2022-08-30T15:54:11;27.50;99.90
9730;DHT22;4904;49.152;11.004;2022-08-30T15:56:39;27.40;99.90
9730;DHT22;4904;49.152;11.004;2022-08-30T15:59:06;27.40;99.90
9730;DHT22;4904;49.152;11.004;2022-08-30T16:01:34;27.30;99.90
9730;DHT22;4904;49.152;11.004;2022-08-30T16:04:01;27.30;99.90
9730;DHT22;4904;49.152;11.004;2022-08-30T16:06:32;27.30;99.90
9730;DHT22;4904;49.152;11.004;2022-08-30T16:09:02;27.40;99.90
9730;DHT22;4904;49.152;11.004;2022-08-30T16:11:29;27.40;99.90